Lawrenceville, Arkansas
Current Conditions -  °F | °C
As of 10:15 AM on Friday 24 Oct 2014 (Local Time) from KSGT Reporting Station
Clear Clear  
Wind Chill: 16°   Ceiling: Unl
Heat Index: 16°   Visibility: 10mi
Dew Point:   Wind: 3mph
Humidity: 63%   Direction: 280°W
Pressure: 30.19"   Gusts: NA
Location:  34.5919°N, 91.1409°W
Report Text: KSGT 241515Z AUTO 28003KT 10SM CLR 16/09 A3019 RMK AO1
Loading
Personal Weather Stations






























Interactive Weather Map
Tropical Storm Tracking
New forecast layout! Learn more

10-Day Weather Forecast

Advertisements
Track Severe Weather on mobile